sensor_id;sensor_type;location;lat;lon;timestamp;P1;durP1;ratioP1;P2;durP2;ratioP2
1140;SDS011;559;48.628;8.924;2024-03-23T00:53:03;147.77;;;141.13;;
1140;SDS011;559;48.628;8.924;2024-03-23T00:55:30;136.43;;;130.73;;
1140;SDS011;559;48.628;8.924;2024-03-23T00:57:55;126.30;;;121.10;;
1140;SDS011;559;48.628;8.924;2024-03-23T01:00:22;122.13;;;117.22;;
1140;SDS011;559;48.628;8.924;2024-03-23T01:02:47;113.70;;;109.30;;
1140;SDS011;559;48.628;8.924;2024-03-23T01:05:14;109.70;;;105.70;;
1140;SDS011;559;48.628;8.924;2024-03-23T01:07:39;108.33;;;104.43;;
1140;SDS011;559;48.628;8.924;2024-03-23T01:10:08;105.13;;;101.32;;
1140;SDS011;559;48.628;8.924;2024-03-23T01:12:34;103.82;;;100.22;;
1140;SDS011;559;48.628;8.924;2024-03-23T01:15:00;105.00;;;101.40;;
1140;SDS011;559;48.628;8.924;2024-03-23T01:17:26;98.00;;;94.60;;
1140;SDS011;559;48.628;8.924;2024-03-23T01:19:52;97.65;;;94.35;;
1140;SDS011;559;48.628;8.924;2024-03-23T01:22:17;99.80;;;96.60;;
1140;SDS011;559;48.628;8.924;2024-03-23T01:24:44;94.65;;;91.55;;
1140;SDS011;559;48.628;8.924;2024-03-23T01:27:11;93.60;;;90.40;;
1140;SDS011;559;48.628;8.924;2024-03-23T01:29:38;94.32;;;91.32;;
1140;SDS011;559;48.628;8.924;2024-03-23T01:32:04;97.37;;;94.17;;
1140;SDS011;559;48.628;8.924;2024-03-23T01:34:32;96.07;;;92.88;;
1140;SDS011;559;48.628;8.924;2024-03-23T01:36:57;96.00;;;92.83;;
1140;SDS011;559;48.628;8.924;2024-03-23T01:39:24;96.40;;;93.20;;
1140;SDS011;559;48.628;8.924;2024-03-23T01:41:49;99.63;;;96.10;;
1140;SDS011;559;48.628;8.924;2024-03-23T01:44:17;99.28;;;95.90;;
1140;SDS011;559;48.628;8.924;2024-03-23T01:46:43;97.90;;;94.63;;
1140;SDS011;559;48.628;8.924;2024-03-23T01:49:10;107.80;;;104.00;;
1140;SDS011;559;48.628;8.924;2024-03-23T01:51:36;107.27;;;103.57;;
1140;SDS011;559;48.628;8.924;2024-03-23T01:54:03;104.43;;;100.85;;
1140;SDS011;559;48.628;8.924;2024-03-23T01:56:29;108.00;;;104.20;;
1140;SDS011;559;48.628;8.924;2024-03-23T01:58:56;106.28;;;102.63;;
1140;SDS011;559;48.628;8.924;2024-03-23T02:01:23;108.70;;;105.03;;
1140;SDS011;559;48.628;8.924;2024-03-23T02:03:49;114.03;;;110.13;;
1140;SDS011;559;48.628;8.924;2024-03-23T02:06:15;106.97;;;103.07;;
1140;SDS011;559;48.628;8.924;2024-03-23T02:08:41;108.05;;;104.45;;
1140;SDS011;559;48.628;8.924;2024-03-23T02:11:07;106.33;;;102.60;;
1140;SDS011;559;48.628;8.924;2024-03-23T02:13:34;109.93;;;106.13;;
1140;SDS011;559;48.628;8.924;2024-03-23T02:15:59;107.57;;;103.87;;
1140;SDS011;559;48.628;8.924;2024-03-23T02:18:27;109.55;;;105.78;;
1140;SDS011;559;48.628;8.924;2024-03-23T02:20:53;109.20;;;105.40;;
1140;SDS011;559;48.628;8.924;2024-03-23T02:23:21;107.85;;;104.05;;
1140;SDS011;559;48.628;8.924;2024-03-23T02:25:46;111.03;;;107.10;;
1140;SDS011;559;48.628;8.924;2024-03-23T02:28:13;111.82;;;107.88;;
1140;SDS011;559;48.628;8.924;2024-03-23T02:30:38;115.27;;;111.17;;
1140;SDS011;559;48.628;8.924;2024-03-23T02:33:05;115.75;;;111.53;;
1140;SDS011;559;48.628;8.924;2024-03-23T02:35:30;118.50;;;114.30;;
1140;SDS011;559;48.628;8.924;2024-03-23T02:37:57;112.65;;;108.65;;
1140;SDS011;559;48.628;8.924;2024-03-23T02:40:24;114.70;;;110.53;;
1140;SDS011;559;48.628;8.924;2024-03-23T02:42:50;116.90;;;112.40;;
1140;SDS011;559;48.628;8.924;2024-03-23T02:45:16;116.20;;;111.90;;
1140;SDS011;559;48.628;8.924;2024-03-23T02:47:42;118.68;;;114.28;;
1140;SDS011;559;48.628;8.924;2024-03-23T02:50:08;119.27;;;114.80;;
1140;SDS011;559;48.628;8.924;2024-03-23T02:52:35;120.43;;;115.93;;
1140;SDS011;559;48.628;8.924;2024-03-23T02:55:01;122.20;;;117.70;;
1140;SDS011;559;48.628;8.924;2024-03-23T02:57:29;121.57;;;117.15;;
1140;SDS011;559;48.628;8.924;2024-03-23T02:59:54;121.75;;;117.15;;
1140;SDS011;559;48.628;8.924;2024-03-23T03:02:21;121.40;;;116.90;;
1140;SDS011;559;48.628;8.924;2024-03-23T03:04:47;122.80;;;118.30;;
1140;SDS011;559;48.628;8.924;2024-03-23T03:07:14;124.38;;;119.68;;
1140;SDS011;559;48.628;8.924;2024-03-23T03:09:39;126.60;;;121.60;;
1140;SDS011;559;48.628;8.924;2024-03-23T03:12:06;127.03;;;122.32;;
1140;SDS011;559;48.628;8.924;2024-03-23T03:14:33;127.68;;;122.70;;
1140;SDS011;559;48.628;8.924;2024-03-23T03:17:00;126.50;;;121.70;;
1140;SDS011;559;48.628;8.924;2024-03-23T03:19:25;124.00;;;119.27;;
1140;SDS011;559;48.628;8.924;2024-03-23T03:21:52;128.88;;;123.97;;
1140;SDS011;559;48.628;8.924;2024-03-23T03:24:18;127.50;;;122.60;;
1140;SDS011;559;48.628;8.924;2024-03-23T03:26:44;127.53;;;122.43;;
1140;SDS011;559;48.628;8.924;2024-03-23T03:29:10;129.20;;;124.20;;
1140;SDS011;559;48.628;8.924;2024-03-23T03:31:38;129.25;;;123.95;;
1140;SDS011;559;48.628;8.924;2024-03-23T03:34:04;131.18;;;126.18;;
1140;SDS011;559;48.628;8.924;2024-03-23T03:36:30;129.82;;;124.80;;
1140;SDS011;559;48.628;8.924;2024-03-23T03:38:56;127.30;;;122.00;;
1140;SDS011;559;48.628;8.924;2024-03-23T03:41:22;127.13;;;121.88;;
1140;SDS011;559;48.628;8.924;2024-03-23T03:43:48;126.37;;;121.50;;
1140;SDS011;559;48.628;8.924;2024-03-23T03:46:14;131.20;;;126.03;;
1140;SDS011;559;48.628;8.924;2024-03-23T03:48:41;128.17;;;123.07;;
1140;SDS011;559;48.628;8.924;2024-03-23T03:51:10;128.25;;;123.15;;
1140;SDS011;559;48.628;8.924;2024-03-23T03:53:35;128.20;;;123.27;;
1140;SDS011;559;48.628;8.924;2024-03-23T03:56:02;133.25;;;127.95;;
1140;SDS011;559;48.628;8.924;2024-03-23T03:58:27;128.63;;;123.63;;
1140;SDS011;559;48.628;8.924;2024-03-23T04:00:54;134.93;;;129.73;;
1140;SDS011;559;48.628;8.924;2024-03-23T04:03:20;130.67;;;125.47;;
1140;SDS011;559;48.628;8.924;2024-03-23T04:06:01;129.18;;;124.10;;
1140;SDS011;559;48.628;8.924;2024-03-23T04:08:26;131.30;;;126.10;;
1140;SDS011;559;48.628;8.924;2024-03-23T04:10:53;128.35;;;123.25;;
1140;SDS011;559;48.628;8.924;2024-03-23T04:13:18;127.80;;;122.70;;
1140;SDS011;559;48.628;8.924;2024-03-23T04:15:44;125.13;;;120.13;;
1140;SDS011;559;48.628;8.924;2024-03-23T04:18:10;124.73;;;119.73;;
1140;SDS011;559;48.628;8.924;2024-03-23T04:20:36;123.90;;;118.88;;
1140;SDS011;559;48.628;8.924;2024-03-23T04:23:03;121.70;;;116.70;;
1140;SDS011;559;48.628;8.924;2024-03-23T04:25:30;128.05;;;122.85;;
1140;SDS011;559;48.628;8.924;2024-03-23T04:27:56;125.90;;;120.90;;
1140;SDS011;559;48.628;8.924;2024-03-23T04:30:23;128.02;;;122.88;;
1140;SDS011;559;48.628;8.924;2024-03-23T04:32:50;132.27;;;127.07;;
1140;SDS011;559;48.628;8.924;2024-03-23T04:35:16;130.55;;;125.03;;
1140;SDS011;559;48.628;8.924;2024-03-23T04:37:42;128.40;;;123.27;;
1140;SDS011;559;48.628;8.924;2024-03-23T04:40:10;128.80;;;123.55;;
1140;SDS011;559;48.628;8.924;2024-03-23T04:42:37;130.60;;;125.40;;
1140;SDS011;559;48.628;8.924;2024-03-23T04:45:04;128.55;;;123.53;;
1140;SDS011;559;48.628;8.924;2024-03-23T04:47:32;134.13;;;128.77;;
1140;SDS011;559;48.628;8.924;2024-03-23T04:50:00;156.25;;;149.90;;
1140;SDS011;559;48.628;8.924;2024-03-23T04:52:27;162.68;;;155.70;;
1140;SDS011;559;48.628;8.924;2024-03-23T04:54:54;172.48;;;165.05;;
1140;SDS011;559;48.628;8.924;2024-03-23T04:57:22;180.90;;;172.63;;
1140;SDS011;559;48.628;8.924;2024-03-23T04:59:48;194.98;;;185.95;;
1140;SDS011;559;48.628;8.924;2024-03-23T05:02:14;196.83;;;187.47;;
1140;SDS011;559;48.628;8.924;2024-03-23T05:04:41;196.88;;;187.00;;
1140;SDS011;559;48.628;8.924;2024-03-23T05:07:07;201.70;;;191.60;;
1140;SDS011;559;48.628;8.924;2024-03-23T05:09:33;198.13;;;188.15;;
1140;SDS011;559;48.628;8.924;2024-03-23T05:11:59;204.23;;;193.73;;
1140;SDS011;559;48.628;8.924;2024-03-23T05:14:27;201.30;;;190.73;;
1140;SDS011;559;48.628;8.924;2024-03-23T05:16:54;205.70;;;194.60;;
1140;SDS011;559;48.628;8.924;2024-03-23T05:19:20;196.65;;;185.68;;
1140;SDS011;559;48.628;8.924;2024-03-23T05:21:47;200.95;;;190.50;;
1140;SDS011;559;48.628;8.924;2024-03-23T05:24:12;201.03;;;190.63;;
1140;SDS011;559;48.628;8.924;2024-03-23T05:26:39;199.75;;;189.55;;
1140;SDS011;559;48.628;8.924;2024-03-23T05:29:04;199.27;;;188.70;;
1140;SDS011;559;48.628;8.924;2024-03-23T05:31:37;198.43;;;188.18;;
1140;SDS011;559;48.628;8.924;2024-03-23T05:34:02;192.82;;;182.48;;
1140;SDS011;559;48.628;8.924;2024-03-23T05:36:29;192.98;;;182.75;;
1140;SDS011;559;48.628;8.924;2024-03-23T05:38:55;191.57;;;181.47;;
1140;SDS011;559;48.628;8.924;2024-03-23T05:41:22;190.23;;;180.25;;
1140;SDS011;559;48.628;8.924;2024-03-23T05:43:49;201.05;;;190.73;;
1140;SDS011;559;48.628;8.924;2024-03-23T05:46:15;210.15;;;199.85;;
1140;SDS011;559;48.628;8.924;2024-03-23T05:48:42;199.77;;;189.47;;
1140;SDS011;559;48.628;8.924;2024-03-23T05:51:09;196.73;;;186.25;;
1140;SDS011;559;48.628;8.924;2024-03-23T05:53:34;192.80;;;183.00;;
1140;SDS011;559;48.628;8.924;2024-03-23T05:56:01;187.75;;;178.05;;
1140;SDS011;559;48.628;8.924;2024-03-23T05:58:28;192.20;;;182.95;;
1140;SDS011;559;48.628;8.924;2024-03-23T06:00:59;194.60;;;185.25;;
1140;SDS011;559;48.628;8.924;2024-03-23T06:03:26;186.23;;;177.60;;
1140;SDS011;559;48.628;8.924;2024-03-23T06:05:54;181.18;;;172.52;;
1140;SDS011;559;48.628;8.924;2024-03-23T06:08:20;181.30;;;172.80;;
1140;SDS011;559;48.628;8.924;2024-03-23T06:10:47;175.45;;;167.10;;
1140;SDS011;559;48.628;8.924;2024-03-23T06:13:13;173.90;;;165.70;;
1140;SDS011;559;48.628;8.924;2024-03-23T06:15:39;173.60;;;165.60;;
1140;SDS011;559;48.628;8.924;2024-03-23T06:18:05;177.40;;;169.40;;
1140;SDS011;559;48.628;8.924;2024-03-23T06:20:32;173.18;;;165.20;;
1140;SDS011;559;48.628;8.924;2024-03-23T06:22:59;174.77;;;166.70;;
1140;SDS011;559;48.628;8.924;2024-03-23T06:25:26;178.25;;;170.05;;
1140;SDS011;559;48.628;8.924;2024-03-23T06:27:51;172.13;;;164.03;;
1140;SDS011;559;48.628;8.924;2024-03-23T06:30:18;168.40;;;160.55;;
1140;SDS011;559;48.628;8.924;2024-03-23T06:32:43;182.17;;;173.30;;
1140;SDS011;559;48.628;8.924;2024-03-23T06:35:10;176.60;;;168.65;;
1140;SDS011;559;48.628;8.924;2024-03-23T06:37:35;174.20;;;166.30;;
1140;SDS011;559;48.628;8.924;2024-03-23T06:40:06;161.38;;;153.98;;
1140;SDS011;559;48.628;8.924;2024-03-23T06:42:34;163.90;;;156.52;;
1140;SDS011;559;48.628;8.924;2024-03-23T06:45:01;162.80;;;155.40;;
1140;SDS011;559;48.628;8.924;2024-03-23T06:47:27;166.90;;;159.40;;
1140;SDS011;559;48.628;8.924;2024-03-23T06:49:53;163.65;;;156.05;;
1140;SDS011;559;48.628;8.924;2024-03-23T06:52:19;164.40;;;156.90;;
1140;SDS011;559;48.628;8.924;2024-03-23T06:54:45;173.13;;;165.32;;
1140;SDS011;559;48.628;8.924;2024-03-23T06:57:12;172.40;;;164.50;;
1140;SDS011;559;48.628;8.924;2024-03-23T06:59:39;173.77;;;165.98;;
1140;SDS011;559;48.628;8.924;2024-03-23T07:02:05;171.40;;;163.70;;
1140;SDS011;559;48.628;8.924;2024-03-23T07:04:33;174.07;;;166.32;;
1140;SDS011;559;48.628;8.924;2024-03-23T07:06:58;166.77;;;159.27;;
1140;SDS011;559;48.628;8.924;2024-03-23T07:09:26;174.82;;;167.32;;
1140;SDS011;559;48.628;8.924;2024-03-23T07:11:53;172.93;;;165.43;;
1140;SDS011;559;48.628;8.924;2024-03-23T07:14:21;165.65;;;158.23;;
1140;SDS011;559;48.628;8.924;2024-03-23T07:16:46;166.93;;;159.73;;
1140;SDS011;559;48.628;8.924;2024-03-23T07:19:14;164.40;;;157.10;;
1140;SDS011;559;48.628;8.924;2024-03-23T07:21:41;168.35;;;161.02;;
1140;SDS011;559;48.628;8.924;2024-03-23T07:24:07;168.40;;;161.10;;
1140;SDS011;559;48.628;8.924;2024-03-23T07:26:33;162.30;;;155.00;;
1140;SDS011;559;48.628;8.924;2024-03-23T07:29:00;164.88;;;157.38;;
1140;SDS011;559;48.628;8.924;2024-03-23T07:31:27;159.67;;;152.57;;
1140;SDS011;559;48.628;8.924;2024-03-23T07:33:53;170.30;;;162.77;;
1140;SDS011;559;48.628;8.924;2024-03-23T07:36:19;167.83;;;160.27;;
1140;SDS011;559;48.628;8.924;2024-03-23T07:38:45;176.75;;;168.95;;
1140;SDS011;559;48.628;8.924;2024-03-23T07:41:12;169.00;;;161.40;;
1140;SDS011;559;48.628;8.924;2024-03-23T07:43:42;176.18;;;168.27;;
1140;SDS011;559;48.628;8.924;2024-03-23T07:46:07;171.70;;;163.70;;
1140;SDS011;559;48.628;8.924;2024-03-23T07:48:35;160.73;;;152.95;;
1140;SDS011;559;48.628;8.924;2024-03-23T07:51:01;165.65;;;157.85;;
1140;SDS011;559;48.628;8.924;2024-03-23T07:53:29;159.70;;;152.25;;
1140;SDS011;559;48.628;8.924;2024-03-23T07:55:55;161.23;;;153.63;;
1140;SDS011;559;48.628;8.924;2024-03-23T07:58:23;165.55;;;157.95;;
1140;SDS011;559;48.628;8.924;2024-03-23T08:00:48;150.53;;;143.33;;
1140;SDS011;559;48.628;8.924;2024-03-23T08:03:15;153.70;;;146.50;;
1140;SDS011;559;48.628;8.924;2024-03-23T08:05:43;154.07;;;146.88;;
1140;SDS011;559;48.628;8.924;2024-03-23T08:08:09;142.88;;;136.27;;
1140;SDS011;559;48.628;8.924;2024-03-23T08:10:36;146.50;;;139.60;;
1140;SDS011;559;48.628;8.924;2024-03-23T08:13:02;129.90;;;123.40;;
1140;SDS011;559;48.628;8.924;2024-03-23T08:15:29;137.23;;;130.93;;
1140;SDS011;559;48.628;8.924;2024-03-23T08:17:57;131.15;;;125.20;;
1140;SDS011;559;48.628;8.924;2024-03-23T08:20:23;129.63;;;123.63;;
1140;SDS011;559;48.628;8.924;2024-03-23T08:22:51;128.98;;;123.05;;
1140;SDS011;559;48.628;8.924;2024-03-23T08:25:17;124.68;;;119.05;;
1140;SDS011;559;48.628;8.924;2024-03-23T08:27:44;114.43;;;109.43;;
1140;SDS011;559;48.628;8.924;2024-03-23T08:30:10;121.85;;;116.55;;
1140;SDS011;559;48.628;8.924;2024-03-23T08:32:36;120.80;;;115.60;;
1140;SDS011;559;48.628;8.924;2024-03-23T08:35:02;119.27;;;113.97;;
1140;SDS011;559;48.628;8.924;2024-03-23T08:37:30;120.80;;;115.50;;
1140;SDS011;559;48.628;8.924;2024-03-23T08:39:56;117.50;;;112.30;;
1140;SDS011;559;48.628;8.924;2024-03-23T08:42:23;110.97;;;105.68;;
1140;SDS011;559;48.628;8.924;2024-03-23T08:44:49;111.15;;;106.10;;
1140;SDS011;559;48.628;8.924;2024-03-23T08:47:16;98.90;;;94.70;;
1140;SDS011;559;48.628;8.924;2024-03-23T08:49:41;102.80;;;98.50;;
1140;SDS011;559;48.628;8.924;2024-03-23T08:52:08;95.25;;;91.45;;
1140;SDS011;559;48.628;8.924;2024-03-23T08:54:34;99.53;;;95.57;;
1140;SDS011;559;48.628;8.924;2024-03-23T08:57:01;98.53;;;94.63;;
1140;SDS011;559;48.628;8.924;2024-03-23T08:59:27;99.45;;;95.65;;
1140;SDS011;559;48.628;8.924;2024-03-23T09:01:54;93.90;;;90.20;;
1140;SDS011;559;48.628;8.924;2024-03-23T09:04:19;96.63;;;92.93;;
1140;SDS011;559;48.628;8.924;2024-03-23T09:06:46;98.20;;;94.10;;
1140;SDS011;559;48.628;8.924;2024-03-23T09:09:12;94.20;;;90.47;;
1140;SDS011;559;48.628;8.924;2024-03-23T09:11:38;88.53;;;85.22;;
1140;SDS011;559;48.628;8.924;2024-03-23T09:14:05;86.40;;;83.03;;
1140;SDS011;559;48.628;8.924;2024-03-23T09:16:31;78.88;;;76.07;;
1140;SDS011;559;48.628;8.924;2024-03-23T09:18:57;84.20;;;80.80;;
1140;SDS011;559;48.628;8.924;2024-03-23T09:21:23;76.30;;;73.28;;
1140;SDS011;559;48.628;8.924;2024-03-23T09:23:49;53.93;;;51.93;;
1140;SDS011;559;48.628;8.924;2024-03-23T09:26:15;60.58;;;58.35;;
1140;SDS011;559;48.628;8.924;2024-03-23T09:28:41;59.53;;;57.43;;
1140;SDS011;559;48.628;8.924;2024-03-23T09:31:09;63.97;;;61.78;;
1140;SDS011;559;48.628;8.924;2024-03-23T09:33:36;57.25;;;55.45;;
1140;SDS011;559;48.628;8.924;2024-03-23T09:36:02;51.88;;;50.05;;
1140;SDS011;559;48.628;8.924;2024-03-23T09:38:28;56.80;;;54.97;;
1140;SDS011;559;48.628;8.924;2024-03-23T09:40:56;62.80;;;60.60;;
1140;SDS011;559;48.628;8.924;2024-03-23T09:43:22;72.43;;;69.90;;
1140;SDS011;559;48.628;8.924;2024-03-23T09:45:49;83.97;;;80.57;;
1140;SDS011;559;48.628;8.924;2024-03-23T09:48:16;87.88;;;83.70;;
1140;SDS011;559;48.628;8.924;2024-03-23T09:50:43;82.90;;;80.00;;
1140;SDS011;559;48.628;8.924;2024-03-23T09:53:09;90.03;;;86.72;;
1140;SDS011;559;48.628;8.924;2024-03-23T09:55:37;89.13;;;85.82;;
1140;SDS011;559;48.628;8.924;2024-03-23T09:58:04;87.55;;;84.25;;
1140;SDS011;559;48.628;8.924;2024-03-23T10:00:31;81.28;;;78.30;;
1140;SDS011;559;48.628;8.924;2024-03-23T10:02:56;75.00;;;72.40;;
1140;SDS011;559;48.628;8.924;2024-03-23T10:05:28;74.28;;;71.75;;
1140;SDS011;559;48.628;8.924;2024-03-23T10:07:54;70.03;;;67.63;;
1140;SDS011;559;48.628;8.924;2024-03-23T10:10:21;64.53;;;62.15;;
1140;SDS011;559;48.628;8.924;2024-03-23T10:12:48;55.20;;;53.30;;
1140;SDS011;559;48.628;8.924;2024-03-23T10:15:17;54.00;;;51.97;;
1140;SDS011;559;48.628;8.924;2024-03-23T10:17:45;57.60;;;55.70;;
1140;SDS011;559;48.628;8.924;2024-03-23T10:20:10;65.77;;;62.73;;
1140;SDS011;559;48.628;8.924;2024-03-23T10:22:38;45.47;;;43.70;;
1140;SDS011;559;48.628;8.924;2024-03-23T10:25:07;36.83;;;35.42;;
1140;SDS011;559;48.628;8.924;2024-03-23T10:27:34;32.65;;;31.00;;
1140;SDS011;559;48.628;8.924;2024-03-23T10:30:07;34.03;;;32.63;;
1140;SDS011;559;48.628;8.924;2024-03-23T10:32:34;27.45;;;26.00;;
1140;SDS011;559;48.628;8.924;2024-03-23T10:35:13;19.63;;;18.37;;
1140;SDS011;559;48.628;8.924;2024-03-23T10:37:41;28.20;;;27.10;;
1140;SDS011;559;48.628;8.924;2024-03-23T10:40:07;46.22;;;44.58;;
1140;SDS011;559;48.628;8.924;2024-03-23T10:42:36;40.63;;;39.33;;
1140;SDS011;559;48.628;8.924;2024-03-23T10:45:03;65.50;;;63.05;;
1140;SDS011;559;48.628;8.924;2024-03-23T10:47:31;95.40;;;91.53;;
1140;SDS011;559;48.628;8.924;2024-03-23T10:49:57;99.30;;;94.50;;
1140;SDS011;559;48.628;8.924;2024-03-23T10:52:23;102.68;;;97.75;;
1140;SDS011;559;48.628;8.924;2024-03-23T10:54:51;117.97;;;111.97;;
1140;SDS011;559;48.628;8.924;2024-03-23T10:57:19;143.05;;;136.20;;
1140;SDS011;559;48.628;8.924;2024-03-23T10:59:46;157.38;;;149.63;;
1140;SDS011;559;48.628;8.924;2024-03-23T11:02:18;161.85;;;154.18;;
1140;SDS011;559;48.628;8.924;2024-03-23T11:04:44;153.27;;;145.75;;
1140;SDS011;559;48.628;8.924;2024-03-23T11:09:55;141.25;;;133.80;;
1140;SDS011;559;48.628;8.924;2024-03-23T11:12:25;134.57;;;127.95;;
1140;SDS011;559;48.628;8.924;2024-03-23T11:14:58;133.15;;;126.57;;
1140;SDS011;559;48.628;8.924;2024-03-23T11:17:26;132.65;;;126.50;;
1140;SDS011;559;48.628;8.924;2024-03-23T11:19:53;126.88;;;120.78;;
1140;SDS011;559;48.628;8.924;2024-03-23T11:25:17;98.82;;;94.13;;
1140;SDS011;559;48.628;8.924;2024-03-23T11:27:46;99.05;;;94.10;;
1140;SDS011;559;48.628;8.924;2024-03-23T11:30:13;89.53;;;85.72;;
1140;SDS011;559;48.628;8.924;2024-03-23T11:32:40;86.03;;;82.32;;
1140;SDS011;559;48.628;8.924;2024-03-23T11:35:07;82.82;;;79.50;;
1140;SDS011;559;48.628;8.924;2024-03-23T11:37:35;71.40;;;67.97;;
1140;SDS011;559;48.628;8.924;2024-03-23T11:40:01;69.63;;;67.20;;
1140;SDS011;559;48.628;8.924;2024-03-23T11:42:44;63.28;;;61.08;;
1140;SDS011;559;48.628;8.924;2024-03-23T11:45:10;62.17;;;59.80;;
1140;SDS011;559;48.628;8.924;2024-03-23T11:47:37;57.95;;;55.85;;
1140;SDS011;559;48.628;8.924;2024-03-23T11:50:03;58.33;;;56.43;;
1140;SDS011;559;48.628;8.924;2024-03-23T11:52:30;55.83;;;53.83;;
1140;SDS011;559;48.628;8.924;2024-03-23T11:55:02;48.88;;;47.05;;
1140;SDS011;559;48.628;8.924;2024-03-23T11:57:31;44.53;;;43.00;;
1140;SDS011;559;48.628;8.924;2024-03-23T11:59:56;40.85;;;39.67;;
1140;SDS011;559;48.628;8.924;2024-03-23T12:02:23;46.08;;;44.28;;
1140;SDS011;559;48.628;8.924;2024-03-23T12:04:49;42.10;;;40.45;;
1140;SDS011;559;48.628;8.924;2024-03-23T12:07:16;40.90;;;39.60;;
1140;SDS011;559;48.628;8.924;2024-03-23T12:09:43;36.42;;;34.80;;
1140;SDS011;559;48.628;8.924;2024-03-23T12:12:11;42.47;;;40.70;;
1140;SDS011;559;48.628;8.924;2024-03-23T12:14:41;48.47;;;46.63;;
1140;SDS011;559;48.628;8.924;2024-03-23T12:17:11;48.65;;;46.88;;
1140;SDS011;559;48.628;8.924;2024-03-23T12:19:37;46.83;;;44.67;;
1140;SDS011;559;48.628;8.924;2024-03-23T12:22:03;40.90;;;39.40;;
1140;SDS011;559;48.628;8.924;2024-03-23T12:24:29;47.83;;;45.95;;
1140;SDS011;559;48.628;8.924;2024-03-23T12:26:59;46.35;;;44.85;;
1140;SDS011;559;48.628;8.924;2024-03-23T12:29:26;47.63;;;45.92;;
1140;SDS011;559;48.628;8.924;2024-03-23T12:31:54;49.35;;;47.65;;
1140;SDS011;559;48.628;8.924;2024-03-23T12:34:21;52.08;;;50.08;;
1140;SDS011;559;48.628;8.924;2024-03-23T12:36:47;54.35;;;52.35;;
1140;SDS011;559;48.628;8.924;2024-03-23T12:39:13;48.40;;;46.83;;
1140;SDS011;559;48.628;8.924;2024-03-23T12:41:39;50.45;;;48.55;;
1140;SDS011;559;48.628;8.924;2024-03-23T12:44:05;55.70;;;53.80;;
1140;SDS011;559;48.628;8.924;2024-03-23T12:46:33;54.70;;;52.92;;
1140;SDS011;559;48.628;8.924;2024-03-23T12:49:00;55.50;;;53.90;;
1140;SDS011;559;48.628;8.924;2024-03-23T12:51:26;43.50;;;41.85;;
1140;SDS011;559;48.628;8.924;2024-03-23T12:53:52;42.33;;;40.40;;
1140;SDS011;559;48.628;8.924;2024-03-23T12:56:18;38.90;;;37.50;;
1140;SDS011;559;48.628;8.924;2024-03-23T16:08:25;106.68;;;102.25;;
1140;SDS011;559;48.628;8.924;2024-03-23T16:12:19;112.20;;;107.85;;
1140;SDS011;559;48.628;8.924;2024-03-23T17:01:53;50.03;;;48.45;;
1140;SDS011;559;48.628;8.924;2024-03-23T17:43:04;150.20;;;144.35;;
1140;SDS011;559;48.628;8.924;2024-03-23T17:58:13;164.85;;;158.20;;
